createdAt,value
2022-11-14T00:01:24.530Z,83.57
2022-11-14T00:06:46.093Z,83.86
2022-11-14T00:12:07.802Z,83.57
2022-11-14T00:17:30.412Z,83.65
2022-11-14T00:22:51.791Z,83.68
2022-11-14T00:28:13.728Z,83.65
2022-11-14T00:33:36.775Z,83.61
2022-11-14T00:38:58.314Z,83.57
2022-11-14T00:44:19.673Z,83.34
2022-11-14T00:49:42.491Z,83.34
2022-11-14T00:55:04.403Z,83.59
2022-11-14T01:00:25.700Z,83.45
2022-11-14T01:05:50.469Z,83.44
2022-11-14T01:11:12.824Z,83.41
2022-11-14T01:16:35.821Z,83.34
2022-11-14T01:22:01.783Z,83.19
2022-11-14T01:27:27.228Z,83.11
2022-11-14T01:32:48.585Z,83.25
2022-11-14T01:38:14.797Z,83.22
2022-11-14T01:43:36.943Z,83.67
2022-11-14T01:49:01.138Z,83.47
2022-11-14T01:54:26.472Z,83.85
2022-11-14T01:59:52.865Z,83.86
2022-11-14T02:05:16.595Z,83.56
2022-11-14T02:10:39.287Z,83.73
2022-11-14T02:16:00.727Z,83.85
2022-11-14T02:21:23.163Z,83.69
2022-11-14T02:26:44.691Z,83.80
2022-11-14T02:32:10.458Z,83.58
2022-11-14T02:37:33.743Z,83.43
2022-11-14T02:42:55.353Z,83.69
2022-11-14T02:48:16.736Z,83.66
2022-11-14T02:53:39.588Z,83.70
2022-11-14T02:59:01.067Z,83.50
2022-11-14T03:04:22.629Z,83.41
2022-11-14T03:09:45.422Z,83.64
2022-11-14T03:15:08.487Z,83.78
2022-11-14T03:20:29.946Z,83.62
2022-11-14T03:25:52.431Z,83.46
2022-11-14T03:31:14.601Z,83.62
2022-11-14T03:36:36.296Z,83.52
2022-11-14T03:41:58.930Z,83.15
2022-11-14T03:47:20.501Z,83.19
2022-11-14T03:52:41.971Z,83.02
2022-11-14T03:58:04.724Z,83.27
2022-11-14T04:03:26.506Z,83.48
2022-11-14T04:08:47.675Z,83.38
2022-11-14T04:14:10.895Z,83.54
2022-11-14T04:19:32.369Z,83.42
2022-11-14T04:24:53.739Z,83.31
2022-11-14T04:30:17.153Z,83.26
2022-11-14T04:35:38.733Z,83.12
2022-11-14T04:41:00.211Z,82.83
2022-11-14T04:46:22.980Z,82.59
2022-11-14T04:51:44.288Z,82.66
2022-11-14T04:57:05.775Z,82.63
2022-11-14T05:02:28.531Z,82.67
2022-11-14T05:07:49.954Z,82.86
2022-11-14T05:13:11.442Z,83.02
2022-11-14T05:18:34.249Z,83.12
2022-11-14T05:23:55.604Z,82.90
2022-11-14T05:29:17.049Z,82.69
2022-11-14T05:34:39.940Z,82.48
2022-11-14T05:40:01.506Z,82.47
2022-11-14T05:45:23.037Z,82.50
2022-11-14T05:50:45.815Z,82.77
2022-11-14T05:56:10.101Z,82.81
2022-11-14T06:01:31.256Z,83.10
2022-11-14T06:06:54.222Z,83.49
2022-11-14T06:12:15.581Z,83.43
2022-11-14T06:17:36.839Z,83.43
2022-11-14T06:22:59.664Z,83.64
2022-11-14T06:28:20.965Z,83.59
2022-11-14T06:33:42.711Z,83.48
2022-11-14T06:39:05.571Z,83.52
2022-11-14T06:44:30.676Z,83.61
2022-11-14T06:49:52.522Z,83.41
2022-11-14T06:55:16.288Z,83.46
2022-11-14T07:00:38.706Z,83.36
2022-11-14T07:06:00.523Z,83.59
2022-11-14T07:11:26.390Z,83.78
2022-11-14T07:16:48.017Z,84.03
2022-11-14T07:22:09.201Z,83.87
2022-11-14T07:27:31.999Z,83.62
2022-11-14T07:32:56.930Z,83.51
2022-11-14T07:38:18.188Z,83.16
2022-11-14T07:43:41.649Z,82.85
2022-11-14T07:49:02.792Z,82.69
2022-11-14T07:54:24.101Z,82.60
2022-11-14T07:59:46.858Z,82.35
2022-11-14T08:05:08.952Z,82.28
2022-11-14T08:10:33.597Z,82.26
2022-11-14T08:15:57.183Z,82.13
2022-11-14T08:21:18.382Z,82.18
2022-11-14T08:26:39.969Z,81.75
2022-11-14T08:32:02.653Z,81.68
2022-11-14T08:37:24.237Z,81.84
2022-11-14T08:42:45.584Z,81.92
2022-11-14T08:48:08.553Z,81.75
2022-11-14T08:53:30.768Z,81.54
2022-11-14T08:58:52.172Z,81.68
2022-11-14T09:04:15.147Z,81.50
2022-11-14T09:09:36.874Z,81.30
2022-11-14T09:14:58.184Z,81.13
2022-11-14T09:20:21.085Z,81.27
2022-11-14T09:25:42.736Z,80.92
2022-11-14T09:31:05.150Z,81.17
2022-11-14T09:36:27.897Z,80.93
2022-11-14T09:41:58.680Z,80.84
2022-11-14T09:47:23.757Z,80.95
2022-11-14T09:52:48.334Z,80.47
2022-11-14T09:58:13.943Z,80.18
2022-11-14T10:03:44.703Z,79.89
2022-11-14T10:09:30.475Z,79.84
2022-11-14T10:15:01.593Z,79.15
2022-11-14T10:20:27.667Z,78.75
2022-11-14T10:25:56.757Z,78.29
2022-11-14T10:31:24.231Z,78.03
2022-11-14T10:37:00.637Z,77.69
2022-11-14T10:42:27.116Z,77.16
2022-11-14T10:47:52.977Z,76.96
2022-11-14T10:53:21.131Z,76.43
2022-11-14T10:58:48.964Z,76.24
2022-11-14T11:04:20.333Z,75.71
2022-11-14T11:09:59.471Z,75.10
2022-11-14T11:15:23.936Z,74.34
2022-11-14T11:20:45.115Z,73.24
2022-11-14T11:26:09.010Z,71.88
2022-11-14T11:31:50.071Z,70.86
2022-11-14T11:37:16.628Z,71.09
2022-11-14T11:48:25.064Z,71.57
2022-11-14T11:53:49.512Z,71.77
2022-11-14T11:59:22.696Z,71.24
2022-11-14T12:04:45.557Z,70.57
2022-11-14T12:10:14.997Z,69.78
2022-11-14T12:15:45.782Z,69.19
2022-11-14T12:21:12.477Z,69.46
2022-11-14T12:26:47.015Z,69.19
2022-11-14T12:32:13.754Z,69.31
2022-11-14T12:37:39.030Z,69.14
2022-11-14T12:43:00.845Z,69.82
2022-11-14T12:48:24.372Z,70.37
2022-11-14T12:53:46.942Z,70.17
2022-11-14T12:59:26.145Z,69.76
2022-11-14T13:05:01.175Z,68.80
2022-11-14T13:10:30.842Z,68.94
2022-11-14T13:16:10.696Z,68.86
2022-11-14T13:21:47.155Z,69.84
2022-11-14T13:27:52.277Z,70.89
2022-11-14T13:33:09.334Z,71.36
2022-11-14T13:38:52.134Z,72.00
2022-11-14T13:44:33.708Z,72.31
2022-11-14T13:49:59.976Z,72.61
2022-11-14T13:55:22.813Z,72.98
2022-11-14T14:01:04.651Z,73.24
2022-11-14T14:06:35.902Z,73.22
2022-11-14T14:12:23.182Z,73.33
2022-11-14T14:17:54.007Z,73.62
2022-11-14T14:23:25.439Z,73.70
2022-11-14T14:28:53.323Z,73.95
2022-11-14T14:34:28.060Z,73.77
2022-11-14T14:39:59.813Z,73.58
2022-11-14T14:45:22.428Z,73.76
2022-11-14T14:50:50.716Z,73.90
2022-11-14T14:56:19.547Z,74.20
2022-11-14T15:01:40.885Z,74.44
2022-11-14T15:07:04.195Z,74.62
2022-11-14T15:12:27.554Z,74.73
2022-11-14T15:17:49.766Z,75.25
2022-11-14T15:23:21.715Z,75.53
2022-11-14T15:28:44.722Z,75.71
2022-11-14T15:34:08.030Z,75.96
2022-11-14T15:39:30.699Z,76.09
2022-11-14T15:44:52.343Z,76.13
2022-11-14T15:50:26.606Z,76.27
2022-11-14T15:55:49.402Z,76.34
2022-11-14T16:01:16.034Z,76.35
2022-11-14T16:06:37.309Z,76.22
2022-11-14T16:12:00.128Z,76.50
2022-11-14T16:17:21.455Z,76.73
2022-11-14T16:22:43.180Z,76.61
2022-11-14T16:28:06.153Z,76.51
2022-11-14T16:33:27.553Z,76.24
2022-11-14T16:38:52.259Z,76.48
2022-11-14T16:44:17.368Z,76.66
2022-11-14T16:49:38.933Z,76.86
2022-11-14T16:55:00.243Z,76.83
2022-11-14T17:00:23.312Z,76.87
2022-11-14T17:05:45.496Z,76.78
2022-11-14T17:11:09.572Z,76.71
2022-11-14T17:16:32.413Z,76.40
2022-11-14T17:21:53.857Z,76.65
2022-11-14T17:27:15.328Z,76.54
2022-11-14T17:32:38.030Z,76.46
2022-11-14T17:38:00.507Z,76.44
2022-11-14T17:43:21.935Z,76.82
2022-11-14T17:48:44.840Z,76.92
2022-11-14T17:54:06.239Z,76.80
2022-11-14T17:59:27.569Z,76.72
2022-11-14T18:04:50.365Z,76.61
2022-11-14T18:10:11.563Z,76.63
2022-11-14T18:15:33.536Z,76.50
2022-11-14T18:20:56.305Z,76.37
2022-11-14T18:26:18.410Z,76.45
2022-11-14T18:31:39.632Z,76.15
2022-11-14T18:37:03.041Z,76.16
2022-11-14T18:42:24.148Z,76.42
2022-11-14T18:47:45.671Z,76.14
2022-11-14T18:53:08.562Z,76.11
2022-11-14T18:58:30.042Z,76.45
2022-11-14T19:03:52.102Z,76.40
2022-11-14T19:09:18.237Z,76.32
2022-11-14T19:14:39.709Z,76.17
2022-11-14T19:20:01.312Z,76.67
2022-11-14T19:25:23.892Z,76.51
2022-11-14T19:30:45.481Z,76.42
2022-11-14T19:36:08.061Z,76.49
2022-11-14T19:41:31.151Z,76.88
2022-11-14T19:46:52.622Z,76.76
2022-11-14T19:52:14.133Z,77.20
2022-11-14T19:57:36.713Z,77.45
2022-11-14T20:02:58.373Z,77.71
2022-11-14T20:08:19.856Z,78.15
2022-11-14T20:13:44.010Z,78.15
2022-11-14T20:19:05.758Z,78.43
2022-11-14T20:24:26.937Z,78.58
2022-11-14T20:29:49.971Z,77.98
2022-11-14T20:35:11.208Z,78.22
2022-11-14T20:40:33.183Z,78.15
2022-11-14T20:46:01.083Z,78.51
2022-11-14T20:51:24.122Z,78.36
2022-11-14T20:56:45.528Z,78.21
2022-11-14T21:02:10.181Z,78.60
2022-11-14T21:07:31.597Z,78.70
2022-11-14T21:13:06.792Z,78.93
2022-11-14T21:18:30.264Z,78.58
2022-11-14T21:23:52.481Z,78.69
2022-11-14T21:29:14.921Z,78.83
2022-11-14T21:34:37.905Z,78.97
2022-11-14T21:39:59.012Z,79.29
2022-11-14T21:45:20.530Z,79.36
2022-11-14T21:50:43.239Z,79.23
2022-11-14T21:56:09.598Z,79.19
2022-11-14T22:01:44.963Z,79.14
2022-11-14T22:07:08.775Z,79.50
2022-11-14T22:12:30.528Z,79.70
2022-11-14T22:17:51.781Z,79.38
2022-11-14T22:23:14.679Z,79.16
2022-11-14T22:28:35.953Z,78.17
2022-11-14T22:33:58.771Z,78.09
2022-11-14T22:39:21.172Z,77.96
2022-11-14T22:44:42.691Z,77.92
2022-11-14T22:50:04.237Z,78.32
2022-11-14T22:55:26.823Z,77.82
2022-11-14T23:00:48.580Z,78.02
2022-11-14T23:06:10.373Z,78.00
2022-11-14T23:11:34.103Z,78.39
2022-11-14T23:16:55.234Z,78.66
2022-11-14T23:22:16.755Z,79.40
2022-11-14T23:27:39.747Z,79.59
2022-11-14T23:33:01.188Z,79.60
2022-11-14T23:38:22.695Z,79.27
2022-11-14T23:43:45.457Z,79.93
2022-11-14T23:49:07.062Z,79.54
2022-11-14T23:54:28.338Z,79.84
2022-11-14T23:59:51.281Z,79.73
